Time;durP1;ratioP1;P1;durP2;ratioP2;P2;SDS_P1;SDS_P2;PMS_P1;PMS_P2;Temp;Humidity;BMP_temperature;BMP_pressure;BME280_temperature;BME280_humidity;BME280_pressure;Samples;Min_cycle;Max_cycle;Signal;HPM_P1;HPM_P2
2022/01/05 00:01:14;;;;;;;4.35;2.70;;;;;;;3.76;100.00;97254.84;5029939;28;20025;-68
2022/01/05 00:03:40;;;;;;;5.70;2.45;;;;;;;3.78;100.00;97236.75;5025799;28;20032;-67
2022/01/05 00:06:05;;;;;;;6.40;2.75;;;;;;;3.79;100.00;97247.25;5030227;28;20055;-67
2022/01/05 00:08:30;;;;;;;4.72;3.03;;;;;;;3.86;100.00;97244.63;5029294;28;20024;-68
2022/01/05 00:10:56;;;;;;;4.38;2.20;;;;;;;3.86;100.00;97233.91;5028576;28;20021;-68
2022/01/05 00:13:21;;;;;;;5.00;2.30;;;;;;;3.83;100.00;97231.66;5034320;28;20395;-68
2022/01/05 00:15:47;;;;;;;3.97;2.30;;;;;;;3.88;100.00;97222.00;5049344;28;20052;-68
2022/01/05 00:18:12;;;;;;;4.45;2.22;;;;;;;3.89;100.00;97220.13;5033356;28;20033;-68
2022/01/05 00:20:37;;;;;;;2.42;1.65;;;;;;;3.95;100.00;97211.31;5027361;28;20028;-68
2022/01/05 00:23:03;;;;;;;2.70;1.52;;;;;;;3.98;100.00;97220.78;5026947;28;20036;-68
2022/01/05 00:25:28;;;;;;;4.15;2.30;;;;;;;4.03;100.00;97223.69;5029632;28;20029;-67
2022/01/05 00:27:54;;;;;;;2.67;1.35;;;;;;;4.06;100.00;97228.63;5036452;28;20024;-67
2022/01/05 00:30:19;;;;;;;3.00;1.70;;;;;;;4.07;100.00;97233.78;5037140;28;20022;-66
2022/01/05 00:32:44;;;;;;;3.22;1.60;;;;;;;4.08;100.00;97235.44;5051094;28;20039;-67
2022/01/05 00:35:10;;;;;;;3.28;1.90;;;;;;;3.90;100.00;97213.75;5047487;28;20067;-67
2022/01/05 00:37:35;;;;;;;3.63;1.75;;;;;;;4.08;100.00;97237.28;5028030;28;20029;-68
2022/01/05 00:40:01;;;;;;;3.83;1.50;;;;;;;4.08;100.00;97227.41;5041525;28;20367;-67
2022/01/05 00:42:26;;;;;;;1.85;1.05;;;;;;;4.12;100.00;97207.25;5046409;28;20033;-67
2022/01/05 00:44:51;;;;;;;3.13;1.30;;;;;;;4.14;100.00;97212.41;5049055;28;20411;-68
2022/01/05 00:47:17;;;;;;;5.22;1.33;;;;;;;4.12;100.00;97204.56;5031655;28;21603;-68
2022/01/05 00:49:42;;;;;;;3.03;1.42;;;;;;;4.01;100.00;97172.19;5031374;28;20037;-67
2022/01/05 00:52:08;;;;;;;4.22;1.10;;;;;;;4.13;100.00;97192.00;5032950;28;20036;-67
2022/01/05 00:54:33;;;;;;;3.50;0.90;;;;;;;4.12;100.00;97187.69;5039906;28;20029;-69
2022/01/05 00:56:59;;;;;;;3.17;1.20;;;;;;;3.92;100.00;97164.38;5032327;28;20064;-69
2022/01/05 00:59:24;;;;;;;2.35;1.38;;;;;;;4.16;100.00;97187.06;5042167;28;20025;-68
2022/01/05 01:01:50;;;;;;;1.10;0.68;;;;;;;4.16;100.00;97181.72;5027130;28;20040;-68
2022/01/05 01:04:16;;;;;;;1.35;0.85;;;;;;;4.17;100.00;97187.91;5029162;28;20033;-69
2022/01/05 01:06:41;;;;;;;1.48;0.75;;;;;;;4.22;100.00;97181.94;5040079;28;20052;-68
2022/01/05 01:09:08;;;;;;;0.82;0.40;;;;;;;4.17;100.00;97167.31;5044713;28;20033;-68
2022/01/05 01:11:33;;;;;;;1.67;0.80;;;;;;;4.24;100.00;97177.22;5036889;28;20040;-67
2022/01/05 01:13:59;;;;;;;2.33;1.10;;;;;;;4.17;100.00;97180.69;5021766;28;20033;-67
2022/01/05 01:16:24;;;;;;;1.25;0.70;;;;;;;4.15;100.00;97195.31;5028877;28;20033;-66
2022/01/05 01:18:50;;;;;;;0.82;0.60;;;;;;;3.87;100.00;97136.56;5042824;28;20028;-67
2022/01/05 01:21:15;;;;;;;1.13;0.60;;;;;;;4.17;100.00;97212.81;5052217;28;20036;-67
2022/01/05 01:23:49;;;;;;;1.30;0.60;;;;;;;4.20;100.00;97216.13;5044478;28;20032;-66
2022/01/05 01:26:14;;;;;;;1.02;0.50;;;;;;;3.97;100.00;97174.47;5055131;28;20100;-69
2022/01/05 01:28:39;;;;;;;0.93;0.55;;;;;;;4.17;100.00;97207.47;5051921;28;20098;-69
2022/01/05 01:31:05;;;;;;;1.52;0.50;;;;;;;4.14;100.00;97223.94;5051331;28;20477;-66
2022/01/05 01:33:30;;;;;;;3.65;0.75;;;;;;;4.15;100.00;97211.38;5036374;28;20610;-67
2022/01/05 01:35:55;;;;;;;1.30;0.50;;;;;;;4.11;100.00;97226.16;5034152;28;20048;-69
2022/01/05 01:38:21;;;;;;;0.55;0.40;;;;;;;4.07;100.00;97215.06;5050332;28;20373;-68
2022/01/05 01:40:46;;;;;;;0.80;0.30;;;;;;;4.09;100.00;97236.28;5054021;28;20044;-67
2022/01/05 01:43:11;;;;;;;0.32;0.32;;;;;;;4.07;100.00;97232.97;5044387;28;20052;-66
2022/01/05 01:45:37;;;;;;;0.60;0.40;;;;;;;4.06;100.00;97239.31;5044547;28;20155;-67
2022/01/05 01:48:02;;;;;;;0.25;0.25;;;;;;;4.04;100.00;97233.38;5037015;28;20112;-66
2022/01/05 01:50:28;;;;;;;0.98;0.40;;;;;;;4.03;100.00;97231.72;5049063;28;20036;-67
2022/01/05 01:52:53;;;;;;;0.40;0.30;;;;;;;4.03;100.00;97240.56;5055341;28;20036;-69
2022/01/05 01:55:20;;;;;;;0.70;0.63;;;;;;;4.04;100.00;97244.91;5037487;28;20037;-66
2022/01/05 01:57:46;;;;;;;1.52;0.70;;;;;;;4.04;100.00;97244.91;5066249;28;20089;-66
2022/01/05 02:00:14;;;;;;;2.15;0.70;;;;;;;4.03;100.00;97240.56;5066688;28;20021;-66
2022/01/05 02:02:42;;;;;;;0.52;0.35;;;;;;;4.06;100.00;97248.22;5067423;28;20390;-66
2022/01/05 02:05:07;;;;;;;1.35;0.32;;;;;;;3.89;100.00;97220.94;5055258;28;20025;-68
2022/01/05 02:07:33;;;;;;;1.25;0.60;;;;;;;4.08;100.00;97232.75;5066682;28;20040;-66
2022/01/05 02:09:58;;;;;;;0.63;0.40;;;;;;;4.07;100.00;97241.81;5067867;28;20048;-66
2022/01/05 02:12:26;;;;;;;0.20;0.20;;;;;;;4.11;100.00;97243.09;5069992;28;20028;-66
2022/01/05 02:14:53;;;;;;;1.35;0.30;;;;;;;4.07;100.00;97251.69;5067109;28;20055;-66
2022/01/05 02:17:22;;;;;;;0.22;0.20;;;;;;;4.09;100.00;97246.97;5068583;28;20035;-66
2022/01/05 02:19:48;;;;;;;0.68;0.30;;;;;;;4.00;100.00;97267.72;5057248;28;20051;-66
2022/01/05 02:22:13;;;;;;;1.30;0.30;;;;;;;4.05;100.00;97269.81;5052794;28;20030;-66
2022/01/05 02:24:38;;;;;;;2.50;1.20;;;;;;;4.11;100.00;97280.56;5061597;28;20028;-66
2022/01/05 02:27:04;;;;;;;0.80;0.60;;;;;;;4.03;100.00;97271.84;5047028;28;20087;-68
2022/01/05 02:29:29;;;;;;;1.20;0.52;;;;;;;4.00;100.00;97272.25;5043884;28;20029;-64
2022/01/05 02:31:57;;;;;;;0.95;0.50;;;;;;;3.98;100.00;97276.97;5045604;28;20067;-65
2022/01/05 02:34:22;;;;;;;0.57;0.30;;;;;;;3.91;100.00;97275.09;5062646;28;20044;-66
2022/01/05 02:36:48;;;;;;;0.85;0.40;;;;;;;3.90;100.00;97265.44;5065758;28;22199;-66
2022/01/05 02:39:13;;;;;;;0.50;0.30;;;;;;;3.89;100.00;97260.25;5056013;28;20048;-65
2022/01/05 02:41:38;;;;;;;0.55;0.30;;;;;;;3.93;100.00;97240.13;5051853;28;20025;-65
2022/01/05 02:44:04;;;;;;;1.08;0.40;;;;;;;4.02;100.00;97246.94;5046950;28;20033;-66
2022/01/05 02:46:29;;;;;;;0.90;0.40;;;;;;;4.01;100.00;97255.16;5044517;28;20108;-65
2022/01/05 02:48:55;;;;;;;0.28;0.28;;;;;;;3.99;100.00;97255.38;5045426;28;20036;-66
2022/01/05 02:51:21;;;;;;;0.40;0.40;;;;;;;3.95;100.00;97252.25;5062704;28;20029;-66
2022/01/05 02:53:47;;;;;;;1.85;0.40;;;;;;;4.08;100.00;97266.72;5051072;28;20366;-65
2022/01/05 02:56:13;;;;;;;0.85;0.40;;;;;;;4.10;100.00;97257.47;5044627;28;20075;-66
2022/01/05 02:58:39;;;;;;;8.32;0.82;;;;;;;4.15;100.00;97260.38;5039803;28;20029;-65
2022/01/05 03:01:05;;;;;;;0.30;0.20;;;;;;;4.17;100.00;97249.47;5050885;28;20029;-65
2022/01/05 03:03:30;;;;;;;0.73;0.28;;;;;;;4.17;100.00;97263.69;5057412;28;20029;-66
2022/01/05 03:05:55;;;;;;;2.22;0.38;;;;;;;4.17;100.00;97258.31;5060463;28;20025;-65
2022/01/05 03:08:21;;;;;;;1.05;0.40;;;;;;;4.08;100.00;97256.84;5058033;28;20028;-66
2022/01/05 03:10:47;;;;;;;0.73;0.30;;;;;;;4.11;100.00;97275.19;5058380;28;20476;-66
2022/01/05 03:13:12;;;;;;;0.47;0.30;;;;;;;4.07;100.00;97265.91;5041317;28;20028;-66
2022/01/05 03:15:38;;;;;;;0.40;0.30;;;;;;;3.98;100.00;97245.69;5041991;28;20086;-66
2022/01/05 03:18:06;;;;;;;1.15;0.25;;;;;;;4.24;100.00;97268.22;5063168;28;20099;-67
2022/01/05 03:20:34;;;;;;;0.20;0.20;;;;;;;4.16;100.00;97270.03;5048190;28;20043;-66
2022/01/05 03:22:59;;;;;;;0.45;0.30;;;;;;;4.21;100.00;97273.97;5054047;28;20280;-67
2022/01/05 03:25:25;;;;;;;0.30;0.20;;;;;;;4.04;100.00;97244.91;5029080;28;20049;-65
2022/01/05 03:27:52;;;;;;;0.60;0.30;;;;;;;4.32;100.00;97276.06;5035278;28;20418;-67
2022/01/05 03:30:23;;;;;;;0.40;0.20;;;;;;;4.33;100.00;97269.72;5048684;28;20033;-69
2022/01/05 03:35:14;;;;;;;1.17;0.20;;;;;;;4.23;100.00;97278.09;5036581;28;20474;-66
2022/01/05 03:37:39;;;;;;;1.77;0.20;;;;;;;4.25;100.00;97275.25;5036858;28;20020;-66
2022/01/05 03:40:05;;;;;;;0.55;0.10;;;;;;;4.21;100.00;97277.47;5035410;28;20033;-67
2022/01/05 03:42:31;;;;;;;0.82;0.10;;;;;;;4.18;100.00;97268.00;5044037;28;20029;-66
2022/01/05 03:44:56;;;;;;;1.85;0.20;;;;;;;4.23;100.00;97264.72;5037348;28;20399;-67
2022/01/05 03:47:21;;;;;;;0.60;0.20;;;;;;;4.23;100.00;97267.41;5034413;28;20022;-67
2022/01/05 03:49:46;;;;;;;0.28;0.28;;;;;;;4.20;100.00;97280.38;5032536;28;20195;-65
2022/01/05 03:52:12;;;;;;;0.43;0.30;;;;;;;4.21;100.00;97279.34;5042225;28;20755;-66
2022/01/05 03:54:37;;;;;;;0.35;0.30;;;;;;;4.21;100.00;97290.84;5051963;28;20021;-66
2022/01/05 03:57:03;;;;;;;0.68;0.20;;;;;;;4.17;100.00;97282.41;5044015;28;20112;-67
2022/01/05 03:59:28;;;;;;;0.35;0.20;;;;;;;4.24;100.00;97279.75;5043858;28;20072;-66
2022/01/05 04:01:53;;;;;;;0.52;0.30;;;;;;;4.23;100.00;97285.31;5026636;28;20031;-67
2022/01/05 04:04:19;;;;;;;1.65;0.30;;;;;;;4.24;100.00;97290.44;5028194;28;22469;-66
2022/01/05 04:06:44;;;;;;;0.73;0.28;;;;;;;4.22;100.00;97289.84;5027319;28;20040;-65
2022/01/05 04:09:10;;;;;;;1.35;0.40;;;;;;;4.25;100.00;97293.97;5027445;28;20018;-65
2022/01/05 04:11:35;;;;;;;2.47;0.40;;;;;;;4.22;100.00;97295.22;5026437;28;20479;-66
2022/01/05 04:14:01;;;;;;;0.75;0.35;;;;;;;4.20;100.00;97285.72;5029194;28;20382;-66
2022/01/05 04:16:26;;;;;;;0.20;0.20;;;;;;;4.21;100.00;97300.75;5033388;28;20040;-68
2022/01/05 04:18:51;;;;;;;0.70;0.22;;;;;;;4.26;100.00;97303.66;5043643;28;20060;-66
2022/01/05 04:21:17;;;;;;;2.25;0.45;;;;;;;4.30;100.00;97302.25;5049254;28;20024;-66
2022/01/05 04:23:42;;;;;;;0.98;0.57;;;;;;;4.26;100.00;97303.66;5050259;28;20044;-66
2022/01/05 04:26:07;;;;;;;0.47;0.20;;;;;;;4.27;100.00;97316.00;5043244;28;20037;-65
2022/01/05 04:28:32;;;;;;;2.75;0.20;;;;;;;4.30;100.00;97319.13;5027673;28;20035;-68
2022/01/05 04:30:58;;;;;;;0.70;0.40;;;;;;;4.26;100.00;97327.75;5026737;28;20450;-65
2022/01/05 04:33:23;;;;;;;0.80;0.35;;;;;;;4.27;100.00;97329.38;5049691;28;20114;-65
2022/01/05 04:35:49;;;;;;;1.75;0.43;;;;;;;4.30;100.00;97337.88;5038682;28;20055;-67
2022/01/05 04:38:14;;;;;;;0.30;0.22;;;;;;;4.29;100.00;97335.38;5030945;28;20030;-66
2022/01/05 04:40:39;;;;;;;2.90;0.50;;;;;;;4.31;100.00;97344.03;5034164;28;20120;-66
2022/01/05 04:43:04;;;;;;;2.67;0.50;;;;;;;4.33;100.00;97342.00;5028256;28;20510;-66
2022/01/05 04:45:30;;;;;;;0.30;0.20;;;;;;;4.17;100.00;97316.38;5026654;28;20078;-67
2022/01/05 04:47:55;;;;;;;0.95;0.50;;;;;;;4.31;100.00;97352.06;5028785;28;20438;-66
2022/01/05 04:50:20;;;;;;;1.35;0.45;;;;;;;4.31;100.00;97336.81;5027967;28;20495;-66
2022/01/05 04:52:46;;;;;;;2.33;0.80;;;;;;;4.29;100.00;97338.88;5025642;28;20119;-67
2022/01/05 04:55:11;;;;;;;0.60;0.45;;;;;;;4.33;100.00;97350.03;5030334;28;20399;-68
2022/01/05 04:57:36;;;;;;;0.65;0.57;;;;;;;4.37;100.00;97335.19;5031482;28;20041;-69
2022/01/05 05:00:03;;;;;;;1.30;0.80;;;;;;;4.37;100.00;97337.88;5040685;28;20032;-71
2022/01/05 05:02:29;;;;;;;0.63;0.43;;;;;;;4.04;100.00;97402.78;5030650;28;20025;-71
2022/01/05 05:04:54;;;;;;;0.50;0.30;;;;;;;3.23;100.00;97405.03;5040510;28;20033;-70
2022/01/05 05:07:20;;;;;;;0.52;0.40;;;;;;;2.70;100.00;97397.28;5041110;28;20116;-70
2022/01/05 05:09:45;;;;;;;0.50;0.40;;;;;;;2.24;100.00;97386.03;5036001;28;20036;-72
2022/01/05 05:12:10;;;;;;;0.65;0.50;;;;;;;1.86;100.00;97368.31;5038920;28;20040;-73
2022/01/05 05:14:36;;;;;;;2.58;0.80;;;;;;;2.01;100.00;97413.63;5042618;28;20383;-73
2022/01/05 05:17:02;;;;;;;1.17;0.85;;;;;;;1.73;100.00;97400.09;5055814;28;20023;-73
2022/01/05 05:19:28;;;;;;;1.40;1.05;;;;;;;1.67;100.00;97406.16;5051549;28;20029;-72
2022/01/05 05:21:54;;;;;;;1.30;1.17;;;;;;;1.70;100.00;97419.97;5038930;28;20551;-74
2022/01/05 05:24:19;;;;;;;1.50;1.20;;;;;;;1.38;100.00;97397.06;5045550;28;20112;-72
2022/01/05 05:26:44;;;;;;;1.77;1.27;;;;;;;1.49;100.00;97433.97;5051158;28;20021;-70
2022/01/05 05:29:10;;;;;;;2.78;1.70;;;;;;;1.58;100.00;97476.56;5062066;28;20405;-70
2022/01/05 05:31:35;;;;;;;1.90;1.52;;;;;;;1.52;100.00;97460.25;5057648;28;20020;-71
2022/01/05 05:34:00;;;;;;;3.00;1.85;;;;;;;1.59;100.00;97491.53;5053278;28;20108;-73
2022/01/05 05:36:26;;;;;;;2.88;1.90;;;;;;;1.61;100.00;97500.19;5047558;28;20476;-73
2022/01/05 05:38:51;;;;;;;6.88;2.30;;;;;;;1.62;100.00;97502.66;5064269;28;20029;-71
2022/01/05 05:41:16;;;;;;;3.15;2.25;;;;;;;1.65;100.00;97522.78;5056310;28;20031;-72
2022/01/05 05:43:42;;;;;;;3.83;2.72;;;;;;;1.62;100.00;97518.66;5040831;28;20040;-71
2022/01/05 05:46:07;;;;;;;5.75;3.00;;;;;;;1.69;100.00;97534.78;5051038;28;20059;-71
2022/01/05 05:48:33;;;;;;;5.07;3.13;;;;;;;1.65;100.00;97541.44;5050163;28;20025;-75
2022/01/05 05:50:58;;;;;;;5.30;3.47;;;;;;;1.71;100.00;97559.41;5046957;28;20104;-71
2022/01/05 05:53:23;;;;;;;7.03;3.83;;;;;;;1.64;100.00;97547.81;5043859;28;20535;-73
2022/01/05 05:55:48;;;;;;;9.23;3.97;;;;;;;1.60;100.00;97538.50;5060051;28;20031;-72
2022/01/05 05:58:14;;;;;;;8.45;4.65;;;;;;;1.63;100.00;97554.97;5056007;28;20036;-72
2022/01/05 06:00:39;;;;;;;6.97;4.78;;;;;;;1.60;100.00;97558.00;5054572;28;20414;-72
2022/01/05 06:03:04;;;;;;;8.70;4.80;;;;;;;1.79;100.00;97606.53;5049511;28;20084;-72
2022/01/05 06:05:30;;;;;;;7.90;4.70;;;;;;;1.78;100.00;97607.53;5056411;28;20060;-72
2022/01/05 06:07:55;;;;;;;8.05;4.45;;;;;;;1.71;100.00;97607.41;5056248;28;20112;-72
2022/01/05 06:10:20;;;;;;;5.55;3.42;;;;;;;1.70;100.00;97601.25;5059005;28;20111;-73
2022/01/05 06:12:46;;;;;;;6.38;4.00;;;;;;;1.40;100.00;97567.44;5051543;28;20044;-71
2022/01/05 06:15:11;;;;;;;6.20;3.00;;;;;;;1.74;100.00;97639.06;5039079;28;20033;-74
2022/01/05 06:17:36;;;;;;;5.50;2.70;;;;;;;1.59;100.00;97616.81;5045731;28;20037;-74
2022/01/05 06:20:04;;;;;;;9.23;2.80;;;;;;;1.52;100.00;97608.69;5055580;28;20025;-73
2022/01/05 06:22:30;;;;;;;5.40;2.50;;;;;;;1.71;100.00;97650.06;5055925;28;20048;-75
2022/01/05 06:24:56;;;;;;;4.93;2.33;;;;;;;1.75;100.00;97654.84;5049504;28;20552;-73
2022/01/05 06:27:21;;;;;;;5.05;2.38;;;;;;;1.54;100.00;97633.31;5073679;28;20414;-72
2022/01/05 06:29:46;;;;;;;6.35;2.17;;;;;;;1.73;100.00;97658.72;5041302;28;20396;-74
2022/01/05 06:32:12;;;;;;;6.28;2.03;;;;;;;1.65;100.00;97651.59;5043140;28;20025;-73
2022/01/05 06:34:37;;;;;;;9.98;1.95;;;;;;;1.54;100.00;97634.16;5048387;28;20025;-74
2022/01/05 06:37:02;;;;;;;4.05;1.73;;;;;;;1.53;100.00;97637.00;5053587;28;20031;-72
2022/01/05 06:39:28;;;;;;;8.07;2.25;;;;;;;1.58;100.00;97647.16;5054493;28;20453;-70
2022/01/05 06:41:53;;;;;;;4.18;1.80;;;;;;;1.73;100.00;97674.72;5051933;28;20056;-73
2022/01/05 06:44:20;;;;;;;6.40;1.73;;;;;;;1.79;100.00;97684.69;5034326;28;20392;-70
2022/01/05 06:46:46;;;;;;;4.53;2.05;;;;;;;1.73;100.00;97678.22;5035389;28;20029;-69
2022/01/05 06:49:11;;;;;;;6.10;2.17;;;;;;;1.75;100.00;97683.38;5053746;28;20025;-72
2022/01/05 06:51:36;;;;;;;6.43;2.10;;;;;;;1.66;100.00;97663.09;5050077;28;20083;-72
2022/01/05 06:54:02;;;;;;;7.57;1.92;;;;;;;1.84;100.00;97702.84;5043282;28;20021;-72
2022/01/05 06:56:27;;;;;;;6.05;1.90;;;;;;;1.90;100.00;97713.63;5051166;28;20112;-72
2022/01/05 06:58:52;;;;;;;3.78;1.77;;;;;;;1.90;100.00;97713.63;5042058;28;20151;-72
2022/01/05 07:01:18;;;;;;;4.57;1.15;;;;;;;1.81;100.00;97713.81;5056710;28;20021;-72
2022/01/05 07:03:43;;;;;;;2.60;0.70;;;;;;;1.52;100.00;97692.16;5060215;28;20036;-73
2022/01/05 07:06:08;;;;;;;2.88;1.00;;;;;;;1.48;100.00;97703.31;5037440;28;20052;-72
2022/01/05 07:08:34;;;;;;;2.42;0.82;;;;;;;1.59;100.00;97721.59;5048099;28;20471;-72
2022/01/05 07:10:59;;;;;;;3.58;0.70;;;;;;;1.38;100.00;97697.38;5037157;28;20031;-72
2022/01/05 07:13:24;;;;;;;4.05;0.80;;;;;;;1.58;100.00;97733.28;5046035;28;20030;-73
2022/01/05 07:15:50;;;;;;;1.65;0.93;;;;;;;1.51;100.00;97732.28;5045148;28;20419;-71
2022/01/05 07:18:16;;;;;;;3.45;1.00;;;;;;;1.50;100.00;97742.13;5039180;28;20026;-74
2022/01/05 07:20:42;;;;;;;3.53;0.85;;;;;;;1.52;100.00;97748.13;5055446;28;20017;-71
2022/01/05 07:23:09;;;;;;;1.98;0.73;;;;;;;1.28;100.00;97710.88;5044912;28;20029;-75
2022/01/05 07:25:34;;;;;;;1.20;0.73;;;;;;;1.31;100.00;97723.88;5050539;28;20364;-74
2022/01/05 07:28:00;;;;;;;1.48;1.00;;;;;;;1.32;100.00;97741.53;5036049;28;20083;-74
2022/01/05 07:30:25;;;;;;;1.48;1.08;;;;;;;1.49;100.00;97756.47;5033439;28;20029;-72
2022/01/05 07:32:50;;;;;;;2.05;1.23;;;;;;;1.44;100.00;97749.97;5043763;28;20025;-74
2022/01/05 07:35:16;;;;;;;3.67;1.63;;;;;;;1.49;100.00;97782.28;5049816;28;20100;-71
2022/01/05 07:37:41;;;;;;;4.03;1.73;;;;;;;1.20;100.00;97780.19;5046020;28;20021;-70
2022/01/05 07:40:07;;;;;;;3.05;1.05;;;;;;;1.01;100.00;97787.53;5044370;28;20434;-71
2022/01/05 07:42:34;;;;;;;1.75;0.80;;;;;;;0.71;100.00;97775.75;5048047;28;20032;-71
2022/01/05 07:45:09;;;;;;;2.53;1.17;;;;;;;0.72;100.00;97801.34;5050205;28;20029;-70
2022/01/05 07:47:35;;;;;;;3.70;1.52;;;;;;;0.39;100.00;97769.41;5048935;28;20060;-72
2022/01/05 07:50:01;;;;;;;6.72;2.30;;;;;;;0.59;100.00;97814.31;5058036;28;20063;-72
2022/01/05 07:52:26;;;;;;;5.05;1.27;;;;;;;0.54;100.00;97817.47;5038696;28;20037;-71
2022/01/05 07:54:52;;;;;;;4.18;1.45;;;;;;;0.43;100.00;97804.47;5038434;28;20029;-71
2022/01/05 07:57:18;;;;;;;2.85;1.30;;;;;;;0.43;100.00;97802.66;5034079;28;20048;-68
2022/01/05 07:59:44;;;;;;;3.53;1.17;;;;;;;0.39;100.00;97808.44;5043834;28;20028;-69
2022/01/05 08:02:09;;;;;;;4.25;1.63;;;;;;;0.18;100.00;97793.81;5053634;28;20107;-71
2022/01/05 08:04:34;;;;;;;5.57;0.98;;;;;;;0.40;100.00;97842.06;5048760;28;20037;-71
2022/01/05 08:06:59;;;;;;;4.97;1.83;;;;;;;0.51;100.00;97860.38;5038608;28;20030;-70
2022/01/05 08:09:25;;;;;;;5.03;1.83;;;;;;;0.43;100.00;97834.56;5042063;28;20494;-70
2022/01/05 08:11:50;;;;;;;4.03;1.90;;;;;;;0.42;100.00;97840.09;5035921;28;20040;-70
2022/01/05 08:14:16;;;;;;;3.92;1.85;;;;;;;0.76;100.00;97868.41;5040629;28;20546;-71
2022/01/05 08:16:42;;;;;;;5.30;2.10;;;;;;;0.63;100.00;97828.97;5033887;28;20028;-71
2022/01/05 08:19:07;;;;;;;12.77;1.60;;;;;;;0.75;100.00;97840.13;5036092;28;20033;-73
2022/01/05 08:21:33;;;;;;;9.45;1.98;;;;;;;1.04;100.00;97880.41;5050263;28;20509;-72
2022/01/05 08:23:58;;;;;;;4.22;1.70;;;;;;;1.09;100.00;97890.56;5041728;28;20021;-72
2022/01/05 08:26:23;;;;;;;2.55;1.50;;;;;;;1.04;100.00;97882.25;5037934;28;20051;-72
2022/01/05 08:28:49;;;;;;;3.20;1.30;;;;;;;1.06;100.00;97904.22;5045152;28;20144;-71
2022/01/05 08:31:14;;;;;;;5.03;1.63;;;;;;;0.85;100.00;97864.75;5038569;28;20025;-71
2022/01/05 08:33:39;;;;;;;6.55;2.15;;;;;;;1.00;100.00;97919.03;5045533;28;20483;-70
2022/01/05 08:36:05;;;;;;;5.20;1.70;;;;;;;1.08;100.00;97921.72;5053014;28;20036;-71
2022/01/05 08:38:32;;;;;;;4.68;1.80;;;;;;;0.91;100.00;97890.72;5034857;28;20017;-70
2022/01/05 08:40:57;;;;;;;7.70;1.70;;;;;;;1.41;100.00;97927.03;5048606;28;20028;-72
2022/01/05 08:43:23;;;;;;;7.93;1.58;;;;;;;2.60;96.80;97898.72;5048581;28;20025;-74
2022/01/05 08:45:48;;;;;;;2.28;1.08;;;;;;;4.21;84.02;97900.38;5044755;28;20085;-76
2022/01/05 08:48:14;;;;;;;3.60;1.02;;;;;;;5.33;75.33;97925.00;5049915;28;20029;-73
2022/01/05 08:50:40;;;;;;;3.90;1.20;;;;;;;5.95;67.95;97914.59;5050224;28;20028;-70
2022/01/05 08:53:07;;;;;;;4.65;0.85;;;;;;;5.37;70.26;97910.19;5063131;28;20063;-70
2022/01/05 08:55:39;;;;;;;2.90;0.88;;;;;;;4.54;73.17;97941.84;5056449;28;20126;-70
2022/01/05 08:58:06;;;;;;;4.25;0.80;;;;;;;3.92;74.94;97923.44;5045943;28;20029;-70
2022/01/05 09:00:32;;;;;;;6.72;1.10;;;;;;;3.13;79.49;97952.34;5041155;28;20013;-71
2022/01/05 09:02:58;;;;;;;3.95;0.80;;;;;;;2.47;82.55;97938.50;5047250;28;20024;-71
2022/01/05 09:05:23;;;;;;;5.75;1.30;;;;;;;2.14;85.37;97954.63;5058083;28;20025;-72
2022/01/05 09:07:49;;;;;;;6.85;1.45;;;;;;;1.83;85.81;97949.19;5053449;28;20041;-72
2022/01/05 09:10:14;;;;;;;4.82;1.20;;;;;;;1.95;85.73;97967.34;5066162;28;20055;-69
2022/01/05 09:12:39;;;;;;;3.88;1.60;;;;;;;2.18;86.04;97977.31;5054726;28;20025;-69
2022/01/05 09:15:05;;;;;;;3.38;1.20;;;;;;;2.09;87.18;97962.31;5049666;28;20110;-70
2022/01/05 09:17:31;;;;;;;12.10;1.88;;;;;;;1.95;88.31;97972.66;5046165;28;20032;-71
2022/01/05 09:19:56;;;;;;;6.82;1.65;;;;;;;1.52;88.90;97948.03;5054550;28;20399;-69
2022/01/05 09:22:22;;;;;;;7.13;1.23;;;;;;;1.62;91.23;97987.03;5038344;28;20048;-69
2022/01/05 09:24:47;;;;;;;8.35;1.30;;;;;;;1.66;93.23;97983.84;5051813;28;20425;-73
2022/01/05 09:27:13;;;;;;;4.18;1.10;;;;;;;1.53;90.59;97957.69;5045965;28;20443;-73
2022/01/05 09:29:40;;;;;;;7.70;1.40;;;;;;;2.00;90.88;97982.84;5036550;28;20092;-73
2022/01/05 09:32:08;;;;;;;6.35;1.30;;;;;;;1.77;90.06;97953.34;5044050;28;20078;-74
2022/01/05 09:34:38;;;;;;;6.30;1.47;;;;;;;2.07;90.71;97994.50;5052978;28;20114;-75
2022/01/05 09:37:10;;;;;;;3.97;1.33;;;;;;;2.22;91.40;98009.81;5035340;28;20079;-73
2022/01/05 09:42:19;;;;;;;3.05;1.23;;;;;;;2.02;85.98;98017.34;5067246;28;20027;-71
2022/01/05 09:44:48;;;;;;;4.65;1.73;;;;;;;1.97;85.89;98020.53;5060878;28;20104;-70
2022/01/05 09:47:32;;;;;;;2.70;1.15;;;;;;;2.01;86.79;98029.00;5047167;28;20383;-73
2022/01/05 09:50:02;;;;;;;6.60;1.38;;;;;;;1.98;86.25;98039.00;5041497;28;20021;-70
2022/01/05 09:52:30;;;;;;;2.75;1.42;;;;;;;1.90;87.60;98007.00;5061696;28;20021;-71
2022/01/05 09:54:55;;;;;;;4.80;0.98;;;;;;;1.98;85.42;98015.00;5061130;28;20029;-69
2022/01/05 09:57:21;;;;;;;3.92;1.17;;;;;;;2.11;81.92;98035.84;5047500;28;20040;-71
2022/01/05 09:59:48;;;;;;;4.10;1.20;;;;;;;2.15;81.11;98042.50;5048838;28;20059;-73
2022/01/05 10:02:15;;;;;;;3.67;1.13;;;;;;;2.34;80.20;98033.31;5056210;28;20394;-72
2022/01/05 10:04:40;;;;;;;5.32;1.08;;;;;;;2.57;76.10;98036.09;5051737;28;20037;-73
2022/01/05 10:07:08;;;;;;;5.00;1.10;;;;;;;2.58;73.99;98015.56;5056673;28;20536;-70
2022/01/05 10:09:36;;;;;;;7.07;1.42;;;;;;;2.81;74.50;98037.84;5045087;28;20021;-70
2022/01/05 10:12:03;;;;;;;6.22;1.10;;;;;;;2.75;74.19;98025.19;5055372;28;20089;-70
2022/01/05 10:14:29;;;;;;;5.32;1.13;;;;;;;2.50;72.21;98034.28;5056012;28;20032;-72
2022/01/05 10:17:06;;;;;;;8.27;1.25;;;;;;;2.51;70.92;98054.63;5053300;28;20031;-70
2022/01/05 10:19:34;;;;;;;4.20;1.17;;;;;;;2.47;76.46;98047.97;5036208;28;20029;-70
2022/01/05 10:21:59;;;;;;;7.35;1.33;;;;;;;3.29;79.16;98051.97;5034084;28;20053;-68
2022/01/05 10:24:41;;;;;;;6.05;2.00;;;;;;;3.05;69.50;98057.44;5039875;28;20709;-70
2022/01/05 10:27:07;;;;;;;5.18;1.10;;;;;;;2.85;68.60;98015.09;5054092;28;20497;-71
2022/01/05 10:29:33;;;;;;;8.02;1.08;;;;;;;2.95;71.04;98054.16;5053456;28;20037;-76
2022/01/05 10:32:01;;;;;;;7.22;1.58;;;;;;;2.81;70.13;98043.19;5032893;28;20811;-72
2022/01/05 10:34:29;;;;;;;5.05;1.05;;;;;;;2.48;70.23;98038.94;5043425;28;20025;-73
2022/01/05 10:36:57;;;;;;;8.23;1.17;;;;;;;2.66;70.75;98034.22;5043792;28;20033;-73
2022/01/05 10:39:35;;;;;;;8.47;1.20;;;;;;;3.67;69.01;98041.38;5036409;28;20084;-72
2022/01/05 10:42:12;;;;;;;4.57;0.95;;;;;;;4.01;66.57;98058.00;5060569;28;20047;-74
2022/01/05 10:44:41;;;;;;;13.38;1.48;;;;;;;3.77;65.96;98038.44;5045288;28;20052;-70
2022/01/05 10:47:06;;;;;;;12.50;1.45;;;;;;;4.74;63.32;98035.03;5045526;28;20025;-74
2022/01/05 10:49:34;;;;;;;4.40;1.00;;;;;;;4.41;62.36;98029.22;5033944;28;20035;-74
2022/01/05 10:52:31;;;;;;;7.13;1.40;;;;;;;5.11;61.28;98068.09;5033894;28;20104;-74
2022/01/05 10:55:09;;;;;;;3.47;1.10;;;;;;;5.95;59.99;98076.53;5033927;28;20022;-72
2022/01/05 10:57:34;;;;;;;7.70;1.30;;;;;;;6.93;58.29;98068.59;5041825;22;20049;-71
2022/01/05 11:00:00;;;;;;;10.05;2.17;;;;;;;6.73;57.20;98068.47;5011837;28;20057;-69
2022/01/05 11:02:32;;;;;;;7.28;2.88;;;;;;;5.95;58.43;98070.31;5003491;28;20121;-71
2022/01/05 11:05:06;;;;;;;4.45;1.23;;;;;;;5.75;60.19;98080.81;4994646;28;20040;-69
2022/01/05 11:07:34;;;;;;;7.20;1.30;;;;;;;4.97;61.86;98067.91;5009229;28;20030;-71
2022/01/05 11:10:05;;;;;;;8.52;1.50;;;;;;;4.36;63.68;98076.09;5008859;28;20022;-71
2022/01/05 11:12:35;;;;;;;10.20;2.55;;;;;;;4.01;65.80;98088.31;5005437;28;20559;-71
2022/01/05 11:15:36;;;;;;;7.80;1.48;;;;;;;6.01;60.53;98086.50;5011511;28;20052;-72
2022/01/05 11:18:08;;;;;;;6.88;1.33;;;;;;;7.79;56.97;98078.91;4972511;28;20547;-70
2022/01/05 11:20:38;;;;;;;4.88;1.23;;;;;;;7.49;56.23;98087.28;4997677;28;20508;-69
2022/01/05 11:23:05;;;;;;;8.02;1.42;;;;;;;7.20;55.35;98073.09;5019704;28;20120;-69
2022/01/05 11:25:31;;;;;;;5.72;1.55;;;;;;;5.42;61.27;98071.41;5018737;28;20434;-70
2022/01/05 11:27:57;;;;;;;14.07;1.92;;;;;;;4.65;62.27;98085.19;5010963;28;20021;-71
2022/01/05 11:30:22;;;;;;;10.77;1.90;;;;;;;4.80;63.94;98099.44;5007821;28;20391;-71
2022/01/05 11:32:49;;;;;;;8.57;1.40;;;;;;;4.70;65.70;98103.41;5005469;28;20033;-72
2022/01/05 11:35:15;;;;;;;6.03;1.60;;;;;;;4.22;64.56;98105.50;5013648;28;20045;-71